createdAt,value
2018-04-11T00:02:04.502Z,29.67
2018-04-11T00:04:32.018Z,31.00
2018-04-11T00:06:59.574Z,26.67
2018-04-11T00:09:27.090Z,30.27
2018-04-11T00:11:54.607Z,31.17
2018-04-11T00:14:22.813Z,34.10
2018-04-11T00:16:50.326Z,31.60
2018-04-11T00:19:18.622Z,41.40
2018-04-11T00:21:46.586Z,32.10
2018-04-11T00:24:25.278Z,35.22
2018-04-11T00:29:25.985Z,39.23
2018-04-11T00:31:53.514Z,36.60
2018-04-11T00:34:21.026Z,37.57
2018-04-11T00:36:48.571Z,42.05
2018-04-11T00:39:17.874Z,47.84
2018-04-11T00:41:45.389Z,43.20
2018-04-11T00:44:24.972Z,41.72
2018-04-11T00:46:52.494Z,42.97
2018-04-11T00:49:20.011Z,48.17
2018-04-11T00:51:47.985Z,44.10
2018-04-11T00:54:16.337Z,43.17
2018-04-11T00:56:44.622Z,47.47
2018-04-11T00:59:13.870Z,40.17
2018-04-11T01:01:41.386Z,46.30
2018-04-11T01:04:08.910Z,53.53
2018-04-11T01:06:37.747Z,54.17
2018-04-11T01:09:06.182Z,53.90
2018-04-11T01:11:33.705Z,55.33
2018-04-11T01:14:01.763Z,59.50
2018-04-11T01:16:29.274Z,58.37
2018-04-11T01:18:57.554Z,61.40
2018-04-11T01:21:25.099Z,54.40
2018-04-11T01:23:53.070Z,60.70
2018-04-11T01:26:20.582Z,59.97
2018-04-11T01:28:48.147Z,63.77
2018-04-11T01:31:16.446Z,59.70
2018-04-11T01:33:43.979Z,59.47
2018-04-11T01:36:12.055Z,62.72
2018-04-11T01:38:39.565Z,59.00
2018-04-11T01:41:07.877Z,62.60
2018-04-11T01:43:35.448Z,62.15
2018-04-11T01:46:02.967Z,66.43
2018-04-11T01:48:30.498Z,61.00
2018-04-11T01:50:58.830Z,59.97
2018-04-11T01:53:26.343Z,50.83
2018-04-11T01:55:54.620Z,48.30
2018-04-11T01:58:22.519Z,54.23
2018-04-11T02:00:50.039Z,45.30
2018-04-11T02:03:17.555Z,46.17
2018-04-11T02:05:45.118Z,44.50
2018-04-11T02:08:12.638Z,41.97
2018-04-11T02:10:40.166Z,45.70
2018-04-11T02:13:07.726Z,42.70
2018-04-11T02:15:35.235Z,41.43
2018-04-11T02:18:02.759Z,43.43
2018-04-11T02:20:31.374Z,44.33
2018-04-11T02:22:58.890Z,39.67
2018-04-11T02:25:26.958Z,42.88
2018-04-11T02:27:54.505Z,39.60
2018-04-11T02:30:22.039Z,42.33
2018-04-11T02:32:49.572Z,39.40
2018-04-11T02:35:17.114Z,37.37
2018-04-11T02:37:45.394Z,39.30
2018-04-11T02:40:24.916Z,39.88
2018-04-11T02:45:39.406Z,41.67
2018-04-11T02:48:06.931Z,41.13
2018-04-11T02:50:34.477Z,41.05
2018-04-11T02:53:02.025Z,36.73
2018-04-11T02:55:29.544Z,39.33
2018-04-11T02:57:57.066Z,40.83
2018-04-11T03:00:25.188Z,40.85
2018-04-11T03:02:52.709Z,40.00
2018-04-11T03:05:20.994Z,40.15
2018-04-11T03:07:49.299Z,38.88
2018-04-11T03:10:16.819Z,38.10
2018-04-11T03:12:44.351Z,39.90
2018-04-11T03:15:11.890Z,36.07
2018-04-11T03:17:39.407Z,40.75
2018-04-11T03:20:07.683Z,36.07
2018-04-11T03:22:36.449Z,37.37
2018-04-11T03:25:03.962Z,36.43
2018-04-11T03:27:31.971Z,36.55
2018-04-11T03:29:59.518Z,36.63
2018-04-11T03:32:27.032Z,35.37
2018-04-11T03:34:54.562Z,43.40
2018-04-11T03:37:22.872Z,37.20
2018-04-11T03:39:50.393Z,39.80
2018-04-11T03:42:18.694Z,45.97
2018-04-11T03:44:46.578Z,35.40
2018-04-11T03:47:25.401Z,38.95
2018-04-11T03:52:37.281Z,34.10
2018-04-11T03:55:05.558Z,35.73
2018-04-11T03:57:33.070Z,41.92
2018-04-11T04:00:00.674Z,36.50
2018-04-11T04:02:28.195Z,46.70
2018-04-11T04:04:55.716Z,46.50
2018-04-11T04:07:23.255Z,40.53
2018-04-11T04:09:50.787Z,41.50
2018-04-11T04:12:18.298Z,47.53
2018-04-11T04:14:57.758Z,51.50
2018-04-11T04:17:36.902Z,43.27
2018-04-11T04:20:16.742Z,51.42
2018-04-11T04:22:44.254Z,43.90
2018-04-11T04:25:11.770Z,45.90
2018-04-11T04:27:39.767Z,54.70
2018-04-11T04:30:07.275Z,48.70
2018-04-11T04:32:34.790Z,54.00
2018-04-11T04:35:02.347Z,53.03
2018-04-11T04:37:29.859Z,50.50
2018-04-11T04:39:57.382Z,49.75
2018-04-11T04:42:25.234Z,45.10
2018-04-11T04:44:52.742Z,45.27
2018-04-11T04:47:20.254Z,48.42
2018-04-11T04:49:47.787Z,62.63
2018-04-11T04:52:16.287Z,53.87
2018-04-11T04:54:43.802Z,55.77
2018-04-11T04:57:11.334Z,52.07
2018-04-11T04:59:38.839Z,45.67
2018-04-11T05:02:07.115Z,54.38
2018-04-11T05:04:35.821Z,45.33
2018-04-11T05:07:03.326Z,50.20
2018-04-11T05:09:30.835Z,50.23
2018-04-11T05:11:58.381Z,48.33
2018-04-11T05:14:26.658Z,42.70
2018-04-11T05:16:54.934Z,42.23
2018-04-11T05:19:23.239Z,45.53
2018-04-11T05:21:50.780Z,43.00
2018-04-11T05:24:18.277Z,43.63
2018-04-11T05:26:46.331Z,49.30
2018-04-11T05:29:26.277Z,42.60
2018-04-11T05:34:30.266Z,41.33
2018-04-11T05:36:58.559Z,47.20
2018-04-11T05:39:26.155Z,42.03
2018-04-11T05:41:53.746Z,46.20
2018-04-11T05:44:21.254Z,37.97
2018-04-11T05:46:48.768Z,41.93
2018-04-11T05:49:17.311Z,40.42
2018-04-11T05:51:44.838Z,36.97
2018-04-11T05:54:12.367Z,43.13
2018-04-11T05:56:39.910Z,41.17
2018-04-11T05:59:07.440Z,44.65
2018-04-11T06:01:34.960Z,57.03
2018-04-11T06:04:03.335Z,58.23
2018-04-11T06:06:31.609Z,36.15
2018-04-11T06:08:59.897Z,42.30
2018-04-11T06:11:27.447Z,37.55
2018-04-11T06:13:54.966Z,46.83
2018-04-11T06:16:22.489Z,46.30
2018-04-11T06:18:50.022Z,40.37
2018-04-11T06:21:17.551Z,39.35
2018-04-11T06:23:45.101Z,36.87
2018-04-11T06:26:14.267Z,45.30
2018-04-11T06:28:41.774Z,48.47
2018-04-11T06:31:10.150Z,49.83
2018-04-11T06:33:38.224Z,44.53
2018-04-11T06:36:05.750Z,37.60
2018-04-11T06:38:33.265Z,50.25
2018-04-11T06:41:00.813Z,27.53
2018-04-11T06:43:29.104Z,25.40
2018-04-11T06:45:56.631Z,24.23
2018-04-11T06:48:25.278Z,23.35
2018-04-11T06:50:52.798Z,20.07
2018-04-11T06:53:20.361Z,21.25
2018-04-11T06:55:47.914Z,22.07
2018-04-11T06:58:15.552Z,18.20
2018-04-11T07:00:43.029Z,15.13
2018-04-11T07:03:11.400Z,14.47
2018-04-11T07:05:38.987Z,10.10
2018-04-11T07:08:06.671Z,12.40
2018-04-11T07:10:34.619Z,14.63
2018-04-11T07:13:02.133Z,13.53
2018-04-11T07:15:29.656Z,10.32
2018-04-11T07:17:57.188Z,9.97
2018-04-11T07:20:24.708Z,12.47
2018-04-11T07:22:52.230Z,13.27
2018-04-11T07:25:19.772Z,11.65
2018-04-11T07:27:47.289Z,10.30
2018-04-11T07:30:15.628Z,14.35
2018-04-11T07:32:44.453Z,10.03
2018-04-11T07:35:13.667Z,10.50
2018-04-11T07:37:41.938Z,8.40
2018-04-11T07:40:10.263Z,7.30
2018-04-11T07:42:37.766Z,6.03
2018-04-11T07:45:06.038Z,5.93
2018-04-11T07:47:34.370Z,4.55
2018-04-11T07:50:01.875Z,11.27
2018-04-11T07:52:30.145Z,5.60
2018-04-11T07:54:58.057Z,6.47
2018-04-11T07:57:25.586Z,5.60
2018-04-11T07:59:53.867Z,5.47
2018-04-11T08:02:21.435Z,7.20
2018-04-11T08:04:48.946Z,4.93
2018-04-11T08:07:16.478Z,4.27
2018-04-11T08:09:44.014Z,4.53
2018-04-11T08:12:11.532Z,4.47
2018-04-11T08:14:39.054Z,3.30
2018-04-11T08:17:07.312Z,4.10
2018-04-11T08:19:35.238Z,4.00
2018-04-11T08:22:03.523Z,5.30
2018-04-11T08:24:31.058Z,8.50
2018-04-11T08:26:58.595Z,10.50
2018-04-11T08:29:26.107Z,12.23
2018-04-11T08:31:54.412Z,5.60
2018-04-11T08:34:22.401Z,5.07
2018-04-11T08:36:49.914Z,5.50
2018-04-11T08:39:18.011Z,10.50
2018-04-11T08:41:45.702Z,6.10
2018-04-11T08:44:15.335Z,6.43
2018-04-11T08:46:44.159Z,9.73
2018-04-11T08:49:11.676Z,5.40
2018-04-11T08:51:39.179Z,6.30
2018-04-11T08:54:06.734Z,6.60
2018-04-11T08:56:34.238Z,6.10
2018-04-11T08:59:01.753Z,6.03
2018-04-11T09:01:29.745Z,6.30
2018-04-11T09:03:57.245Z,6.10
2018-04-11T09:06:25.539Z,7.62
2018-04-11T09:08:53.106Z,5.30
2018-04-11T09:11:20.652Z,5.35
2018-04-11T09:13:48.942Z,4.90
2018-04-11T09:16:16.486Z,5.43
2018-04-11T09:18:43.995Z,6.00
2018-04-11T09:21:11.517Z,5.80
2018-04-11T09:23:39.371Z,5.83
2018-04-11T09:26:07.696Z,5.90
2018-04-11T09:28:35.202Z,6.20
2018-04-11T09:31:03.535Z,6.13
2018-04-11T09:33:31.056Z,6.03
2018-04-11T09:35:59.463Z,6.47
2018-04-11T09:38:27.026Z,7.43
2018-04-11T09:40:54.540Z,7.87
2018-04-11T09:43:22.066Z,7.77
2018-04-11T09:45:50.296Z,8.35
2018-04-11T09:48:17.821Z,8.40
2018-04-11T09:50:45.340Z,12.20
2018-04-11T09:53:14.575Z,8.83
2018-04-11T09:55:42.083Z,11.07
2018-04-11T09:58:09.589Z,8.60
2018-04-11T10:00:37.895Z,13.93
2018-04-11T10:03:06.023Z,11.73
2018-04-11T10:05:34.326Z,13.90
2018-04-11T10:08:03.033Z,10.03
2018-04-11T10:10:30.547Z,10.70
2018-04-11T10:12:58.055Z,9.57
2018-04-11T10:15:25.592Z,11.80
2018-04-11T10:17:53.102Z,9.50
2018-04-11T10:20:20.604Z,9.87
2018-04-11T10:22:48.144Z,13.33
2018-04-11T10:25:16.485Z,10.70
2018-04-11T10:27:44.049Z,10.50
2018-04-11T10:30:12.198Z,10.20
2018-04-11T10:32:39.738Z,11.33
2018-04-11T10:35:07.246Z,9.87
2018-04-11T10:37:35.161Z,10.17
2018-04-11T10:40:02.667Z,11.90
2018-04-11T10:42:30.205Z,12.68
2018-04-11T10:44:57.762Z,16.73
2018-04-11T10:47:25.290Z,9.60
2018-04-11T10:49:52.793Z,9.43
2018-04-11T10:52:20.657Z,16.73
2018-04-11T10:54:48.170Z,9.20
2018-04-11T10:57:16.388Z,8.93
2018-04-11T10:59:43.941Z,8.60
2018-04-11T11:02:11.454Z,8.70
2018-04-11T11:04:39.731Z,8.10
2018-04-11T11:07:07.269Z,8.03
2018-04-11T11:09:34.781Z,8.97
2018-04-11T11:12:02.285Z,8.50
2018-04-11T11:14:29.930Z,10.40
2018-04-11T11:16:57.448Z,8.20
2018-04-11T11:19:24.960Z,7.87
2018-04-11T11:21:52.493Z,9.50
2018-04-11T11:24:20.023Z,10.77
2018-04-11T11:26:47.534Z,9.02
2018-04-11T11:29:15.502Z,9.43
2018-04-11T11:31:43.014Z,8.53
2018-04-11T11:34:10.530Z,8.10
2018-04-11T11:36:38.645Z,9.20
2018-04-11T11:39:06.762Z,10.10
2018-04-11T11:41:34.278Z,8.63
2018-04-11T11:44:01.831Z,8.20
2018-04-11T11:46:29.350Z,10.15
2018-04-11T11:48:57.647Z,12.93
2018-04-11T11:51:25.186Z,10.02
2018-04-11T11:53:52.708Z,8.87
2018-04-11T11:56:20.213Z,9.32
2018-04-11T11:58:48.315Z,9.67
2018-04-11T12:01:17.155Z,9.67
2018-04-11T12:03:44.664Z,10.70
2018-04-11T12:06:12.206Z,9.20
2018-04-11T12:08:39.727Z,9.37
2018-04-11T12:11:07.248Z,9.30
2018-04-11T12:13:34.777Z,8.00
2018-04-11T12:16:02.278Z,10.27
2018-04-11T12:18:29.791Z,6.90
2018-04-11T12:20:57.677Z,8.30
2018-04-11T12:23:25.182Z,15.43
2018-04-11T12:25:52.690Z,13.87
2018-04-11T12:28:20.456Z,11.25
2018-04-11T12:30:47.980Z,13.73
2018-04-11T12:33:16.496Z,11.77
2018-04-11T12:35:44.092Z,10.00
2018-04-11T12:38:11.602Z,9.70
2018-04-11T12:40:40.660Z,12.00
2018-04-11T12:43:08.482Z,10.33
2018-04-11T12:45:35.991Z,13.53
2018-04-11T12:48:04.272Z,9.40
2018-04-11T12:50:32.595Z,9.23
2018-04-11T12:53:00.114Z,9.93
2018-04-11T12:55:28.390Z,10.60
2018-04-11T12:57:56.715Z,12.10
2018-04-11T13:00:24.413Z,9.32
2018-04-11T13:02:52.690Z,12.63
2018-04-11T13:05:21.579Z,13.00
2018-04-11T13:07:49.860Z,10.37
2018-04-11T13:10:18.208Z,6.20
2018-04-11T13:12:45.871Z,16.50
2018-04-11T13:15:24.265Z,13.02
2018-04-11T13:20:25.304Z,56.10
2018-04-11T13:22:52.988Z,8.13
2018-04-11T13:25:20.520Z,7.64
2018-04-11T13:27:48.054Z,8.60
2018-04-11T13:30:16.438Z,11.02
2018-04-11T13:32:44.705Z,9.30
2018-04-11T13:35:13.930Z,8.00
2018-04-11T13:37:41.438Z,7.45
2018-04-11T13:40:09.054Z,8.70
2018-04-11T13:42:37.944Z,10.53
2018-04-11T13:45:05.751Z,9.60
2018-04-11T13:47:33.254Z,9.88
2018-04-11T13:50:00.803Z,10.00
2018-04-11T13:52:29.075Z,8.90
2018-04-11T13:54:57.366Z,12.63
2018-04-11T13:57:24.908Z,11.03
2018-04-11T13:59:53.413Z,11.50
2018-04-11T14:02:20.923Z,9.03
2018-04-11T14:04:48.782Z,9.77
2018-04-11T14:07:16.410Z,9.57
2018-04-11T14:09:44.005Z,10.83
2018-04-11T14:12:11.537Z,10.70
2018-04-11T14:14:39.054Z,13.97
2018-04-11T14:17:07.330Z,10.07
2018-04-11T14:19:35.628Z,10.50
2018-04-11T14:22:03.142Z,11.23
2018-04-11T14:24:31.408Z,9.97
2018-04-11T14:26:59.412Z,12.80
2018-04-11T14:29:26.934Z,10.17
2018-04-11T14:31:54.444Z,15.65
2018-04-11T14:34:21.982Z,11.80
2018-04-11T14:36:50.257Z,12.90
2018-04-11T14:39:18.544Z,41.33
2018-04-11T14:41:46.077Z,22.93
2018-04-11T14:44:15.852Z,13.97
2018-04-11T14:46:43.378Z,13.67
2018-04-11T14:49:11.230Z,15.33
2018-04-11T14:51:38.758Z,13.30
2018-04-11T14:54:06.272Z,17.20
2018-04-11T14:56:33.809Z,15.35
2018-04-11T14:59:01.331Z,17.20
2018-04-11T15:01:28.858Z,16.98
2018-04-11T15:03:56.465Z,14.23
2018-04-11T15:06:24.749Z,19.33
2018-04-11T15:08:53.019Z,12.90
2018-04-11T15:11:22.055Z,12.73
2018-04-11T15:13:49.578Z,15.63
2018-04-11T15:16:17.866Z,22.30
2018-04-11T15:18:45.414Z,12.95
2018-04-11T15:21:15.335Z,18.70
2018-04-11T15:23:43.007Z,20.23
2018-04-11T15:26:10.554Z,16.62
2018-04-11T15:28:38.067Z,12.97
2018-04-11T15:31:05.578Z,17.30
2018-04-11T15:33:33.882Z,14.00
2018-04-11T15:36:01.404Z,17.37
2018-04-11T15:38:28.933Z,16.23
2018-04-11T15:40:56.495Z,15.57
2018-04-11T15:43:24.008Z,16.53
2018-04-11T15:45:52.088Z,9.88
2018-04-11T15:48:19.638Z,20.98
2018-04-11T15:50:47.192Z,8.47
2018-04-11T15:53:16.259Z,8.35
2018-04-11T15:55:44.607Z,13.43
2018-04-11T15:58:12.122Z,10.10
2018-04-11T16:00:40.410Z,13.02
2018-04-11T16:03:07.949Z,10.20
2018-04-11T16:05:35.484Z,10.20
2018-04-11T16:08:02.998Z,11.37
2018-04-11T16:10:30.551Z,14.20
2018-04-11T16:12:58.062Z,12.10
2018-04-11T16:15:25.569Z,15.77
2018-04-11T16:17:53.818Z,10.80
2018-04-11T16:20:21.334Z,9.93
2018-04-11T16:22:49.742Z,11.30
2018-04-11T16:25:17.461Z,13.77
2018-04-11T16:27:44.977Z,17.13
2018-04-11T16:30:12.495Z,15.25
2018-04-11T16:32:40.046Z,11.57
2018-04-11T16:35:08.383Z,13.82
2018-04-11T16:37:35.927Z,14.33
2018-04-11T16:40:03.539Z,13.95
2018-04-11T16:42:31.049Z,16.10
2018-04-11T16:44:58.554Z,35.63
2018-04-11T16:47:26.572Z,15.83
2018-04-11T16:49:54.096Z,20.63
2018-04-11T16:52:22.418Z,15.33
2018-04-11T16:54:49.965Z,14.90
2018-04-11T16:57:17.484Z,23.73
2018-04-11T16:59:45.779Z,18.90
2018-04-11T17:02:15.002Z,20.40
2018-04-11T17:04:42.595Z,27.63
2018-04-11T17:07:10.119Z,22.93
2018-04-11T17:09:37.712Z,18.03
2018-04-11T17:12:05.598Z,15.90
2018-04-11T17:14:33.172Z,21.52
2018-04-11T17:17:01.498Z,87.97
2018-04-11T17:19:29.035Z,20.53
2018-04-11T17:22:08.506Z,19.20
2018-04-11T17:24:47.948Z,15.80
2018-04-11T17:27:28.411Z,20.37
2018-04-11T17:30:10.008Z,22.17
2018-04-11T17:32:37.553Z,21.47
2018-04-11T17:35:05.082Z,19.60
2018-04-11T17:37:32.615Z,20.43
2018-04-11T17:40:00.510Z,20.23
2018-04-11T17:42:28.025Z,27.00
2018-04-11T17:44:56.309Z,18.23
2018-04-11T17:47:24.656Z,23.40
2018-04-11T17:49:53.155Z,19.40
2018-04-11T17:52:22.174Z,20.03
2018-04-11T17:54:49.715Z,24.50
2018-04-11T17:57:17.222Z,20.57
2018-04-11T17:59:44.747Z,17.53
2018-04-11T18:02:12.735Z,20.27
2018-04-11T18:04:40.331Z,62.90
2018-04-11T18:07:07.843Z,29.13
2018-04-11T18:09:35.377Z,20.80
2018-04-11T18:12:03.650Z,18.13
2018-04-11T18:14:31.926Z,24.10
2018-04-11T18:17:00.228Z,21.37
2018-04-11T18:19:27.755Z,21.57
2018-04-11T18:21:55.271Z,22.07
2018-04-11T18:24:22.844Z,18.87
2018-04-11T18:26:50.367Z,20.03
2018-04-11T18:29:17.882Z,17.93
2018-04-11T18:31:45.428Z,22.40
2018-04-11T18:34:15.390Z,30.27
2018-04-11T18:36:43.002Z,31.97
2018-04-11T18:39:11.303Z,23.02
2018-04-11T18:41:39.587Z,22.73
2018-04-11T18:44:07.097Z,19.17
2018-04-11T18:46:34.762Z,23.90
2018-04-11T18:49:02.311Z,22.27
2018-04-11T18:51:29.966Z,26.13
2018-04-11T18:53:57.510Z,19.08
2018-04-11T18:56:25.035Z,19.90
2018-04-11T18:58:53.586Z,16.55
2018-04-11T19:01:21.219Z,20.38
2018-04-11T19:03:48.744Z,17.10
2018-04-11T19:06:16.518Z,17.37
2018-04-11T19:08:44.538Z,29.83
2018-04-11T19:11:12.054Z,19.20
2018-04-11T19:13:39.566Z,16.33
2018-04-11T19:16:07.164Z,18.63
2018-04-11T19:18:34.681Z,16.50
2018-04-11T19:21:02.378Z,16.50
2018-04-11T19:23:31.533Z,16.40
2018-04-11T19:25:59.045Z,18.90
2018-04-11T19:28:26.570Z,18.23
2018-04-11T19:30:55.199Z,16.27
2018-04-11T19:33:22.714Z,18.67
2018-04-11T19:35:50.233Z,17.37
2018-04-11T19:38:17.784Z,22.37
2018-04-11T19:40:45.299Z,17.80
2018-04-11T19:43:25.298Z,19.92
2018-04-11T19:48:37.958Z,20.00
2018-04-11T19:51:05.680Z,26.07
2018-04-11T19:53:34.143Z,17.33
2018-04-11T19:56:02.533Z,19.57
2018-04-11T19:58:30.072Z,24.70
2018-04-11T20:00:57.645Z,19.50
2018-04-11T20:03:25.307Z,19.27
2018-04-11T20:05:52.823Z,16.60
2018-04-11T20:08:20.387Z,22.58
2018-04-11T20:10:48.507Z,17.20
2018-04-11T20:13:16.527Z,20.43
2018-04-11T20:15:44.858Z,19.50
2018-04-11T20:18:12.442Z,22.90
2018-04-11T20:20:39.962Z,20.00
2018-04-11T20:23:07.578Z,21.73
2018-04-11T20:25:35.891Z,17.27
2018-04-11T20:28:03.454Z,20.10
2018-04-11T20:30:30.965Z,23.30
2018-04-11T20:32:59.202Z,18.42
2018-04-11T20:35:26.849Z,20.13
2018-04-11T20:37:54.390Z,26.37
2018-04-11T20:40:22.710Z,23.70
2018-04-11T20:42:50.245Z,20.80
2018-04-11T20:45:17.980Z,21.13
2018-04-11T20:47:45.539Z,17.90
2018-04-11T20:50:26.141Z,22.30
2018-04-11T20:55:27.590Z,22.07
2018-04-11T20:57:55.113Z,17.77
2018-04-11T21:00:22.627Z,20.87
2018-04-11T21:02:50.167Z,22.97
2018-04-11T21:05:17.769Z,21.20
2018-04-11T21:07:45.278Z,20.83
2018-04-11T21:10:13.758Z,22.77
2018-04-11T21:12:41.278Z,23.17
2018-04-11T21:15:08.846Z,17.20
2018-04-11T21:17:37.366Z,22.40
2018-04-11T21:20:05.687Z,19.40
2018-04-11T21:22:33.202Z,26.95
2018-04-11T21:25:00.749Z,21.83
2018-04-11T21:27:28.270Z,19.20
2018-04-11T21:29:55.990Z,19.17
2018-04-11T21:32:23.540Z,24.87
2018-04-11T21:34:51.050Z,21.30
2018-04-11T21:37:18.723Z,18.73
2018-04-11T21:39:46.742Z,32.27
2018-04-11T21:42:26.880Z,20.25
2018-04-11T21:47:45.838Z,20.80
2018-04-11T21:50:15.442Z,23.75
2018-04-11T21:52:42.958Z,20.00
2018-04-11T21:55:11.010Z,24.98
2018-04-11T21:57:39.438Z,17.07
2018-04-11T22:00:07.722Z,19.93
2018-04-11T22:02:36.038Z,18.93
2018-04-11T22:05:03.733Z,28.40
2018-04-11T22:07:31.248Z,19.67
2018-04-11T22:09:58.898Z,23.50
2018-04-11T22:12:27.172Z,15.82
2018-04-11T22:14:54.686Z,19.50
2018-04-11T22:17:22.274Z,26.60
2018-04-11T22:19:49.781Z,18.80
2018-04-11T22:22:17.557Z,30.12
2018-04-11T22:24:45.091Z,16.90
2018-04-11T22:27:12.597Z,22.10
2018-04-11T22:29:40.115Z,12.43
2018-04-11T22:32:07.675Z,18.33
2018-04-11T22:34:35.290Z,20.73
2018-04-11T22:37:03.587Z,16.07
2018-04-11T22:39:31.628Z,17.00
2018-04-11T22:41:59.246Z,17.30
2018-04-11T22:44:26.762Z,15.50
2018-04-11T22:46:54.292Z,19.40
2018-04-11T22:49:21.822Z,15.18
2018-04-11T22:51:49.366Z,12.77
2018-04-11T22:54:16.881Z,27.20
2018-04-11T22:56:45.174Z,11.50
2018-04-11T22:59:15.265Z,9.63
2018-04-11T23:01:43.404Z,17.17
2018-04-11T23:04:10.914Z,10.20
2018-04-11T23:06:39.233Z,15.18
2018-04-11T23:09:06.770Z,9.30
2018-04-11T23:11:34.499Z,11.63
2018-04-11T23:14:02.012Z,20.17
2018-04-11T23:16:29.555Z,18.25
2018-04-11T23:18:57.070Z,10.53
2018-04-11T23:21:24.584Z,12.98
2018-04-11T23:23:52.757Z,12.83
2018-04-11T23:26:20.282Z,10.85
2018-04-11T23:28:48.563Z,12.13
2018-04-11T23:31:16.438Z,11.70
2018-04-11T23:33:43.942Z,8.47
2018-04-11T23:36:11.482Z,13.57
2018-04-11T23:38:39.381Z,11.30
2018-04-11T23:41:06.891Z,18.73
2018-04-11T23:43:34.411Z,11.73
2018-04-11T23:46:02.326Z,15.57
2018-04-11T23:48:29.859Z,11.03
2018-04-11T23:50:57.373Z,9.63
2018-04-11T23:53:24.937Z,8.67
2018-04-11T23:55:52.447Z,14.70
2018-04-11T23:58:19.957Z,11.35
